createdAt,value
2019-04-14T09:24:44.714Z,22.70
2019-04-14T09:29:36.405Z,16.80
2019-04-14T09:34:28.245Z,15.30
2019-04-14T09:39:20.482Z,14.00
2019-04-14T09:44:12.259Z,15.70
2019-04-14T09:49:04.533Z,13.80
2019-04-14T09:53:56.829Z,14.70
2019-04-14T09:58:49.316Z,14.40
2019-04-14T10:03:41.926Z,14.30
2019-04-14T10:08:34.334Z,13.30
2019-04-14T10:13:28.560Z,12.40
2019-04-14T10:18:20.072Z,10.30
2019-04-14T10:23:12.294Z,12.00
2019-04-14T10:28:04.257Z,10.80
2019-04-14T10:32:56.579Z,10.90
2019-04-14T10:37:49.148Z,10.70
2019-04-14T10:42:41.244Z,10.30
2019-04-14T10:47:33.609Z,13.50
2019-04-14T10:52:26.309Z,14.50
2019-04-14T10:57:18.625Z,10.90
2019-04-14T11:02:11.440Z,11.70
2019-04-14T11:07:03.533Z,10.90
2019-04-14T11:11:55.912Z,13.40
2019-04-14T11:16:48.313Z,10.90
2019-04-14T11:21:42.550Z,12.40
2019-04-14T11:26:34.785Z,13.40
2019-04-14T11:31:27.053Z,12.10
2019-04-14T11:36:19.366Z,12.30
2019-04-14T11:41:11.336Z,9.60
2019-04-14T11:46:04.078Z,10.80
2019-04-14T11:50:56.556Z,9.70
2019-04-14T11:55:49.497Z,9.80
2019-04-14T12:00:42.072Z,10.20
2019-04-14T12:05:34.613Z,9.70
2019-04-14T12:10:26.962Z,12.00
2019-04-14T12:15:19.360Z,10.00
2019-04-14T12:20:11.632Z,9.90
2019-04-14T12:25:03.773Z,12.00
2019-04-14T12:29:56.683Z,10.70
2019-04-14T12:34:50.901Z,9.80
2019-04-14T12:39:42.918Z,8.90
2019-04-14T12:44:35.136Z,8.50
2019-04-14T12:49:27.373Z,10.20
2019-04-14T12:54:19.502Z,9.60
2019-04-14T12:59:11.777Z,10.20
2019-04-14T13:04:03.892Z,11.50
2019-04-14T13:08:56.703Z,10.00
2019-04-14T13:13:49.172Z,10.10
2019-04-14T13:18:41.766Z,12.50
2019-04-14T13:23:34.064Z,10.30
2019-04-14T13:28:26.287Z,9.60
2019-04-14T13:33:18.706Z,11.10
2019-04-14T13:38:10.633Z,12.00
2019-04-14T13:43:02.926Z,12.90
2019-04-14T13:47:55.415Z,11.10
2019-04-14T13:52:47.978Z,11.80
2019-04-14T13:57:40.471Z,13.40
2019-04-14T14:02:33.136Z,12.30
2019-04-14T14:07:25.054Z,15.90
2019-04-14T14:12:16.804Z,12.10
2019-04-14T14:17:08.547Z,11.50
2019-04-14T14:22:00.988Z,13.30
2019-04-14T14:26:53.143Z,13.30
2019-04-14T14:31:45.167Z,13.40
2019-04-14T14:36:36.971Z,17.70
2019-04-14T14:41:28.834Z,11.10
2019-04-14T14:46:21.087Z,11.20
2019-04-14T14:51:13.622Z,13.20
2019-04-14T14:56:05.837Z,10.60
2019-04-14T15:00:57.738Z,16.80
2019-04-14T15:05:49.670Z,10.70
2019-04-14T15:10:41.608Z,11.40
2019-04-14T15:15:33.382Z,12.00
2019-04-14T15:20:25.223Z,11.00
2019-04-14T15:25:17.329Z,11.50
2019-04-14T15:30:09.042Z,9.00
2019-04-14T15:35:00.834Z,8.70
2019-04-14T15:39:52.577Z,12.20
2019-04-14T15:44:44.361Z,11.60
2019-04-14T15:49:36.578Z,9.60
2019-04-14T15:54:28.976Z,11.60
2019-04-14T15:59:20.648Z,8.20
2019-04-14T16:04:12.228Z,11.00
2019-04-14T16:09:04.208Z,11.60
2019-04-14T16:13:56.420Z,11.60
2019-04-14T16:18:48.881Z,9.10
2019-04-14T16:23:50.220Z,12.50
2019-04-14T16:28:40.694Z,10.60
2019-04-14T16:33:32.401Z,7.70
2019-04-14T16:38:24.111Z,9.50
2019-04-14T16:43:16.257Z,11.60
2019-04-14T16:48:08.458Z,8.80
2019-04-14T16:53:00.446Z,7.50
2019-04-14T16:57:52.486Z,8.80
2019-04-14T17:02:44.478Z,7.70
2019-04-14T17:07:36.650Z,11.90
2019-04-14T17:12:28.662Z,11.20
2019-04-14T17:17:20.420Z,12.50
2019-04-14T17:22:12.471Z,11.40
2019-04-14T17:27:04.433Z,9.40
2019-04-14T17:31:56.498Z,7.10
2019-04-14T17:36:48.492Z,11.40
2019-04-14T17:41:42.901Z,9.90
2019-04-14T17:46:34.793Z,9.40
2019-04-14T17:51:26.612Z,9.20
2019-04-14T17:56:18.581Z,8.80
2019-04-14T18:01:10.750Z,8.60
2019-04-14T18:06:02.782Z,10.00
2019-04-14T18:10:54.733Z,11.10
2019-04-14T18:15:46.640Z,9.50
2019-04-14T18:20:38.601Z,9.80
2019-04-14T18:25:30.713Z,10.20
2019-04-14T18:30:22.748Z,10.30
2019-04-14T18:35:14.794Z,8.30
2019-04-14T18:40:08.831Z,9.10
2019-04-14T18:45:00.478Z,9.30
2019-04-14T18:49:53.579Z,10.30
2019-04-14T18:54:54.270Z,7.80
2019-04-14T18:59:44.521Z,9.80
2019-04-14T19:04:36.373Z,8.50
2019-04-14T19:09:28.460Z,11.00
2019-04-14T19:14:20.469Z,8.20
2019-04-14T19:19:12.385Z,12.30
2019-04-14T19:24:04.324Z,8.60
2019-04-14T19:28:56.280Z,8.00
2019-04-14T19:33:48.394Z,9.30
2019-04-14T19:38:40.664Z,10.80
2019-04-14T19:43:33.196Z,8.40
2019-04-14T19:48:25.237Z,7.30
2019-04-14T19:53:17.019Z,8.50
2019-04-14T19:58:09.100Z,8.40
2019-04-14T20:03:01.138Z,8.60
2019-04-14T20:07:53.023Z,8.40
2019-04-14T20:12:45.017Z,10.70
2019-04-14T20:17:36.957Z,13.10
2019-04-14T20:22:28.879Z,7.50
2019-04-14T20:27:21.294Z,9.10
2019-04-14T20:32:13.207Z,10.20
2019-04-14T20:37:05.333Z,10.30
2019-04-14T20:41:57.546Z,8.40
2019-04-14T20:46:49.533Z,9.60
2019-04-14T20:51:41.548Z,7.90
2019-04-14T20:56:33.424Z,9.10
2019-04-14T21:01:25.682Z,6.90
2019-04-14T21:06:17.334Z,6.10
2019-04-14T21:11:09.275Z,6.40
